sensor_id;sensor_type;location;lat;lon;timestamp;P1;durP1;ratioP1;P2;durP2;ratioP2
48975;SDS011;34791;52.752;8.346;2023-11-21T00:01:06;67.03;;;18.67;;
48975;SDS011;34791;52.752;8.346;2023-11-21T00:03:33;66.37;;;18.50;;
48975;SDS011;34791;52.752;8.346;2023-11-21T00:05:59;68.80;;;19.57;;
48975;SDS011;34791;52.752;8.346;2023-11-21T00:08:25;71.63;;;19.37;;
48975;SDS011;34791;52.752;8.346;2023-11-21T00:10:51;65.73;;;19.60;;
48975;SDS011;34791;52.752;8.346;2023-11-21T00:13:16;71.60;;;18.87;;
48975;SDS011;34791;52.752;8.346;2023-11-21T00:15:41;65.00;;;19.13;;
48975;SDS011;34791;52.752;8.346;2023-11-21T00:18:06;76.57;;;20.50;;
48975;SDS011;34791;52.752;8.346;2023-11-21T00:20:32;78.37;;;20.43;;
48975;SDS011;34791;52.752;8.346;2023-11-21T00:22:57;74.17;;;20.17;;
48975;SDS011;34791;52.752;8.346;2023-11-21T00:25:22;77.87;;;20.67;;
48975;SDS011;34791;52.752;8.346;2023-11-21T00:27:48;73.80;;;20.27;;
48975;SDS011;34791;52.752;8.346;2023-11-21T00:30:13;82.07;;;22.50;;
48975;SDS011;34791;52.752;8.346;2023-11-21T00:32:38;73.53;;;21.50;;
48975;SDS011;34791;52.752;8.346;2023-11-21T00:35:04;81.33;;;22.47;;
48975;SDS011;34791;52.752;8.346;2023-11-21T00:37:30;70.90;;;21.60;;
48975;SDS011;34791;52.752;8.346;2023-11-21T00:39:57;80.37;;;20.83;;
48975;SDS011;34791;52.752;8.346;2023-11-21T00:42:22;76.47;;;22.97;;
48975;SDS011;34791;52.752;8.346;2023-11-21T00:44:47;74.77;;;20.57;;
48975;SDS011;34791;52.752;8.346;2023-11-21T00:47:13;87.63;;;22.97;;
48975;SDS011;34791;52.752;8.346;2023-11-21T00:49:38;88.33;;;21.47;;
48975;SDS011;34791;52.752;8.346;2023-11-21T00:52:04;75.90;;;20.83;;
48975;SDS011;34791;52.752;8.346;2023-11-21T00:54:29;90.43;;;21.70;;
48975;SDS011;34791;52.752;8.346;2023-11-21T00:56:55;89.93;;;21.70;;
48975;SDS011;34791;52.752;8.346;2023-11-21T00:59:21;93.03;;;22.10;;
48975;SDS011;34791;52.752;8.346;2023-11-21T01:01:48;86.97;;;22.30;;
48975;SDS011;34791;52.752;8.346;2023-11-21T01:04:13;80.30;;;22.07;;
48975;SDS011;34791;52.752;8.346;2023-11-21T01:06:38;86.10;;;23.43;;
48975;SDS011;34791;52.752;8.346;2023-11-21T01:09:04;92.77;;;24.70;;
48975;SDS011;34791;52.752;8.346;2023-11-21T01:11:33;87.40;;;22.87;;
48975;SDS011;34791;52.752;8.346;2023-11-21T01:14:01;96.93;;;24.07;;
48975;SDS011;34791;52.752;8.346;2023-11-21T01:16:26;96.67;;;22.67;;
48975;SDS011;34791;52.752;8.346;2023-11-21T01:18:52;105.07;;;25.53;;
48975;SDS011;34791;52.752;8.346;2023-11-21T01:21:18;96.70;;;23.80;;
48975;SDS011;34791;52.752;8.346;2023-11-21T01:23:43;91.50;;;22.60;;
48975;SDS011;34791;52.752;8.346;2023-11-21T01:26:08;100.70;;;23.87;;
48975;SDS011;34791;52.752;8.346;2023-11-21T01:28:33;101.27;;;24.50;;
48975;SDS011;34791;52.752;8.346;2023-11-21T01:30:58;105.33;;;25.10;;
48975;SDS011;34791;52.752;8.346;2023-11-21T01:33:24;105.70;;;24.17;;
48975;SDS011;34791;52.752;8.346;2023-11-21T01:35:50;104.57;;;24.67;;
48975;SDS011;34791;52.752;8.346;2023-11-21T01:38:15;113.40;;;25.60;;
48975;SDS011;34791;52.752;8.346;2023-11-21T01:40:42;104.83;;;24.93;;
48975;SDS011;34791;52.752;8.346;2023-11-21T01:43:07;111.03;;;25.07;;
48975;SDS011;34791;52.752;8.346;2023-11-21T01:45:33;102.10;;;24.13;;
48975;SDS011;34791;52.752;8.346;2023-11-21T01:47:59;109.03;;;25.53;;
48975;SDS011;34791;52.752;8.346;2023-11-21T01:50:25;114.33;;;26.00;;
48975;SDS011;34791;52.752;8.346;2023-11-21T01:52:51;115.23;;;24.13;;
48975;SDS011;34791;52.752;8.346;2023-11-21T01:55:17;110.70;;;25.33;;
48975;SDS011;34791;52.752;8.346;2023-11-21T01:57:48;111.27;;;25.20;;
48975;SDS011;34791;52.752;8.346;2023-11-21T02:00:14;114.07;;;24.47;;
48975;SDS011;34791;52.752;8.346;2023-11-21T02:02:44;114.37;;;25.03;;
48975;SDS011;34791;52.752;8.346;2023-11-21T02:05:16;111.03;;;26.40;;
48975;SDS011;34791;52.752;8.346;2023-11-21T02:07:45;110.63;;;24.93;;
48975;SDS011;34791;52.752;8.346;2023-11-21T02:10:12;115.47;;;26.37;;
48975;SDS011;34791;52.752;8.346;2023-11-21T02:12:40;116.97;;;26.37;;
48975;SDS011;34791;52.752;8.346;2023-11-21T02:15:05;117.03;;;26.03;;
48975;SDS011;34791;52.752;8.346;2023-11-21T02:17:35;123.27;;;26.47;;
48975;SDS011;34791;52.752;8.346;2023-11-21T02:20:00;111.73;;;25.60;;
48975;SDS011;34791;52.752;8.346;2023-11-21T02:22:26;117.80;;;26.47;;
48975;SDS011;34791;52.752;8.346;2023-11-21T02:24:55;119.70;;;26.83;;
48975;SDS011;34791;52.752;8.346;2023-11-21T02:27:21;131.33;;;27.30;;
48975;SDS011;34791;52.752;8.346;2023-11-21T02:29:48;124.67;;;27.17;;
48975;SDS011;34791;52.752;8.346;2023-11-21T02:32:13;123.17;;;27.17;;
48975;SDS011;34791;52.752;8.346;2023-11-21T02:34:39;129.83;;;27.90;;
48975;SDS011;34791;52.752;8.346;2023-11-21T02:37:04;128.70;;;27.87;;
48975;SDS011;34791;52.752;8.346;2023-11-21T02:39:30;130.50;;;28.07;;
48975;SDS011;34791;52.752;8.346;2023-11-21T02:41:56;143.13;;;26.90;;
48975;SDS011;34791;52.752;8.346;2023-11-21T02:44:22;126.93;;;26.67;;
48975;SDS011;34791;52.752;8.346;2023-11-21T02:46:47;138.53;;;27.37;;
48975;SDS011;34791;52.752;8.346;2023-11-21T02:49:12;127.93;;;27.80;;
48975;SDS011;34791;52.752;8.346;2023-11-21T02:51:38;150.43;;;29.80;;
48975;SDS011;34791;52.752;8.346;2023-11-21T02:54:04;155.83;;;29.77;;
48975;SDS011;34791;52.752;8.346;2023-11-21T02:56:31;144.57;;;29.07;;
48975;SDS011;34791;52.752;8.346;2023-11-21T02:58:59;159.40;;;30.03;;
48975;SDS011;34791;52.752;8.346;2023-11-21T03:01:25;163.03;;;29.07;;
48975;SDS011;34791;52.752;8.346;2023-11-21T03:03:50;159.67;;;29.67;;
48975;SDS011;34791;52.752;8.346;2023-11-21T03:06:18;177.70;;;32.13;;
48975;SDS011;34791;52.752;8.346;2023-11-21T03:08:44;180.47;;;30.73;;
48975;SDS011;34791;52.752;8.346;2023-11-21T03:11:09;179.10;;;30.90;;
48975;SDS011;34791;52.752;8.346;2023-11-21T03:13:34;171.57;;;31.57;;
48975;SDS011;34791;52.752;8.346;2023-11-21T03:15:59;193.63;;;30.13;;
48975;SDS011;34791;52.752;8.346;2023-11-21T03:18:24;185.70;;;31.40;;
48975;SDS011;34791;52.752;8.346;2023-11-21T03:20:51;181.57;;;30.80;;
48975;SDS011;34791;52.752;8.346;2023-11-21T03:23:17;191.53;;;31.33;;
48975;SDS011;34791;52.752;8.346;2023-11-21T03:25:42;204.27;;;32.67;;
48975;SDS011;34791;52.752;8.346;2023-11-21T03:28:07;199.93;;;32.50;;
48975;SDS011;34791;52.752;8.346;2023-11-21T03:30:33;166.30;;;30.50;;
48975;SDS011;34791;52.752;8.346;2023-11-21T03:32:58;163.80;;;29.47;;
48975;SDS011;34791;52.752;8.346;2023-11-21T03:35:24;172.70;;;30.63;;
48975;SDS011;34791;52.752;8.346;2023-11-21T03:37:49;180.93;;;30.20;;
48975;SDS011;34791;52.752;8.346;2023-11-21T03:40:14;161.67;;;29.70;;
48975;SDS011;34791;52.752;8.346;2023-11-21T03:42:40;168.97;;;29.83;;
48975;SDS011;34791;52.752;8.346;2023-11-21T03:45:06;161.53;;;28.30;;
48975;SDS011;34791;52.752;8.346;2023-11-21T03:47:31;165.93;;;29.53;;
48975;SDS011;34791;52.752;8.346;2023-11-21T03:49:56;168.03;;;30.40;;
48975;SDS011;34791;52.752;8.346;2023-11-21T03:52:22;180.17;;;29.43;;
48975;SDS011;34791;52.752;8.346;2023-11-21T03:54:47;179.03;;;30.73;;
48975;SDS011;34791;52.752;8.346;2023-11-21T03:57:12;178.47;;;29.83;;
48975;SDS011;34791;52.752;8.346;2023-11-21T03:59:41;162.67;;;29.13;;
48975;SDS011;34791;52.752;8.346;2023-11-21T04:02:06;166.10;;;28.77;;
48975;SDS011;34791;52.752;8.346;2023-11-21T04:04:32;172.37;;;28.80;;
48975;SDS011;34791;52.752;8.346;2023-11-21T04:06:58;170.73;;;28.90;;
48975;SDS011;34791;52.752;8.346;2023-11-21T04:09:23;148.00;;;28.57;;
48975;SDS011;34791;52.752;8.346;2023-11-21T04:11:50;141.10;;;28.93;;
48975;SDS011;34791;52.752;8.346;2023-11-21T04:14:15;149.97;;;29.60;;
48975;SDS011;34791;52.752;8.346;2023-11-21T04:16:41;140.60;;;28.20;;
48975;SDS011;34791;52.752;8.346;2023-11-21T04:19:07;165.77;;;30.30;;
48975;SDS011;34791;52.752;8.346;2023-11-21T04:21:34;150.60;;;28.23;;
48975;SDS011;34791;52.752;8.346;2023-11-21T04:23:59;146.27;;;29.57;;
48975;SDS011;34791;52.752;8.346;2023-11-21T04:26:24;152.00;;;29.50;;
48975;SDS011;34791;52.752;8.346;2023-11-21T04:28:49;154.73;;;29.40;;
48975;SDS011;34791;52.752;8.346;2023-11-21T04:31:15;178.43;;;30.37;;
48975;SDS011;34791;52.752;8.346;2023-11-21T04:33:40;170.00;;;29.97;;
48975;SDS011;34791;52.752;8.346;2023-11-21T04:36:05;172.27;;;30.17;;
48975;SDS011;34791;52.752;8.346;2023-11-21T04:38:31;169.10;;;30.07;;
48975;SDS011;34791;52.752;8.346;2023-11-21T04:40:56;154.67;;;30.33;;
48975;SDS011;34791;52.752;8.346;2023-11-21T04:43:21;185.03;;;31.70;;
48975;SDS011;34791;52.752;8.346;2023-11-21T04:45:47;191.37;;;32.27;;
48975;SDS011;34791;52.752;8.346;2023-11-21T04:48:12;170.40;;;31.20;;
48975;SDS011;34791;52.752;8.346;2023-11-21T04:50:37;177.93;;;32.90;;
48975;SDS011;34791;52.752;8.346;2023-11-21T04:53:03;171.47;;;31.90;;
48975;SDS011;34791;52.752;8.346;2023-11-21T04:55:29;169.27;;;32.40;;
48975;SDS011;34791;52.752;8.346;2023-11-21T04:57:54;204.37;;;33.37;;
48975;SDS011;34791;52.752;8.346;2023-11-21T05:00:19;182.67;;;32.00;;
48975;SDS011;34791;52.752;8.346;2023-11-21T05:02:46;186.23;;;33.57;;
48975;SDS011;34791;52.752;8.346;2023-11-21T05:05:11;190.57;;;33.90;;
48975;SDS011;34791;52.752;8.346;2023-11-21T05:07:38;174.87;;;32.47;;
48975;SDS011;34791;52.752;8.346;2023-11-21T05:10:04;201.93;;;32.70;;
48975;SDS011;34791;52.752;8.346;2023-11-21T05:12:32;190.90;;;33.90;;
48975;SDS011;34791;52.752;8.346;2023-11-21T05:15:04;188.85;;;33.28;;
48975;SDS011;34791;52.752;8.346;2023-11-21T05:17:32;184.43;;;33.73;;
48975;SDS011;34791;52.752;8.346;2023-11-21T05:19:59;197.30;;;32.27;;
48975;SDS011;34791;52.752;8.346;2023-11-21T05:22:25;204.60;;;32.37;;
48975;SDS011;34791;52.752;8.346;2023-11-21T05:24:50;196.03;;;34.27;;
48975;SDS011;34791;52.752;8.346;2023-11-21T05:27:16;184.97;;;33.07;;
48975;SDS011;34791;52.752;8.346;2023-11-21T05:29:41;185.80;;;32.53;;
48975;SDS011;34791;52.752;8.346;2023-11-21T05:32:06;222.57;;;34.10;;
48975;SDS011;34791;52.752;8.346;2023-11-21T05:34:31;180.37;;;32.70;;
48975;SDS011;34791;52.752;8.346;2023-11-21T05:36:57;156.03;;;30.90;;
48975;SDS011;34791;52.752;8.346;2023-11-21T05:39:23;179.10;;;31.87;;
48975;SDS011;34791;52.752;8.346;2023-11-21T05:41:49;158.70;;;31.13;;
48975;SDS011;34791;52.752;8.346;2023-11-21T05:44:14;180.33;;;32.13;;
48975;SDS011;34791;52.752;8.346;2023-11-21T05:46:40;170.87;;;31.73;;
48975;SDS011;34791;52.752;8.346;2023-11-21T05:49:08;182.70;;;32.13;;
48975;SDS011;34791;52.752;8.346;2023-11-21T05:51:33;182.37;;;34.40;;
48975;SDS011;34791;52.752;8.346;2023-11-21T05:53:59;166.37;;;30.97;;
48975;SDS011;34791;52.752;8.346;2023-11-21T05:56:24;155.67;;;30.93;;
48975;SDS011;34791;52.752;8.346;2023-11-21T05:58:49;168.63;;;30.00;;
48975;SDS011;34791;52.752;8.346;2023-11-21T06:01:16;167.67;;;28.30;;
48975;SDS011;34791;52.752;8.346;2023-11-21T06:03:41;155.70;;;25.80;;
48975;SDS011;34791;52.752;8.346;2023-11-21T06:06:06;131.03;;;24.73;;
48975;SDS011;34791;52.752;8.346;2023-11-21T06:08:31;135.13;;;21.03;;
48975;SDS011;34791;52.752;8.346;2023-11-21T06:10:57;98.53;;;18.43;;
48975;SDS011;34791;52.752;8.346;2023-11-21T06:13:22;96.67;;;17.03;;
48975;SDS011;34791;52.752;8.346;2023-11-21T06:15:49;99.90;;;17.63;;
48975;SDS011;34791;52.752;8.346;2023-11-21T06:18:15;102.93;;;17.83;;
48975;SDS011;34791;52.752;8.346;2023-11-21T06:20:40;99.27;;;16.80;;
48975;SDS011;34791;52.752;8.346;2023-11-21T06:25:56;106.97;;;18.77;;
48975;SDS011;34791;52.752;8.346;2023-11-21T06:28:22;104.13;;;18.93;;
48975;SDS011;34791;52.752;8.346;2023-11-21T06:30:47;112.33;;;19.27;;
48975;SDS011;34791;52.752;8.346;2023-11-21T06:33:14;106.80;;;19.63;;
48975;SDS011;34791;52.752;8.346;2023-11-21T06:35:39;102.23;;;18.37;;
48975;SDS011;34791;52.752;8.346;2023-11-21T06:38:05;121.73;;;23.83;;
48975;SDS011;34791;52.752;8.346;2023-11-21T06:40:30;125.67;;;23.43;;
48975;SDS011;34791;52.752;8.346;2023-11-21T06:42:56;107.50;;;21.03;;
48975;SDS011;34791;52.752;8.346;2023-11-21T06:45:23;99.20;;;20.77;;
48975;SDS011;34791;52.752;8.346;2023-11-21T06:47:49;74.20;;;18.20;;
48975;SDS011;34791;52.752;8.346;2023-11-21T06:50:14;56.30;;;14.73;;
48975;SDS011;34791;52.752;8.346;2023-11-21T06:52:39;60.30;;;13.57;;
48975;SDS011;34791;52.752;8.346;2023-11-21T06:55:04;58.30;;;14.67;;
48975;SDS011;34791;52.752;8.346;2023-11-21T06:57:30;51.63;;;13.47;;
48975;SDS011;34791;52.752;8.346;2023-11-21T06:59:56;46.90;;;12.07;;
48975;SDS011;34791;52.752;8.346;2023-11-21T07:02:22;46.27;;;11.83;;
48975;SDS011;34791;52.752;8.346;2023-11-21T07:04:47;42.93;;;11.57;;
48975;SDS011;34791;52.752;8.346;2023-11-21T07:07:12;40.43;;;11.17;;
48975;SDS011;34791;52.752;8.346;2023-11-21T07:09:38;42.17;;;10.93;;
48975;SDS011;34791;52.752;8.346;2023-11-21T07:12:04;40.87;;;11.43;;
48975;SDS011;34791;52.752;8.346;2023-11-21T07:14:31;42.57;;;12.23;;
48975;SDS011;34791;52.752;8.346;2023-11-21T07:16:57;41.37;;;12.67;;
48975;SDS011;34791;52.752;8.346;2023-11-21T07:19:22;39.53;;;11.23;;
48975;SDS011;34791;52.752;8.346;2023-11-21T07:21:47;42.03;;;12.23;;
48975;SDS011;34791;52.752;8.346;2023-11-21T07:24:15;37.47;;;11.33;;
48975;SDS011;34791;52.752;8.346;2023-11-21T07:26:41;43.60;;;12.53;;
48975;SDS011;34791;52.752;8.346;2023-11-21T07:29:06;40.00;;;12.47;;
48975;SDS011;34791;52.752;8.346;2023-11-21T07:31:31;40.33;;;11.17;;
48975;SDS011;34791;52.752;8.346;2023-11-21T07:33:59;34.47;;;10.67;;
48975;SDS011;34791;52.752;8.346;2023-11-21T07:36:24;41.87;;;12.43;;
48975;SDS011;34791;52.752;8.346;2023-11-21T07:38:49;39.20;;;13.00;;
48975;SDS011;34791;52.752;8.346;2023-11-21T07:41:15;43.47;;;12.67;;
48975;SDS011;34791;52.752;8.346;2023-11-21T07:43:46;42.57;;;12.83;;
48975;SDS011;34791;52.752;8.346;2023-11-21T07:46:12;26.93;;;8.93;;
48975;SDS011;34791;52.752;8.346;2023-11-21T07:48:41;41.27;;;12.17;;
48975;SDS011;34791;52.752;8.346;2023-11-21T07:51:07;35.63;;;11.37;;
48975;SDS011;34791;52.752;8.346;2023-11-21T07:53:32;31.90;;;10.40;;
48975;SDS011;34791;52.752;8.346;2023-11-21T07:55:58;22.87;;;8.90;;
48975;SDS011;34791;52.752;8.346;2023-11-21T07:58:23;28.77;;;10.07;;
48975;SDS011;34791;52.752;8.346;2023-11-21T08:00:49;25.73;;;10.60;;
48975;SDS011;34791;52.752;8.346;2023-11-21T08:03:14;28.43;;;9.70;;
48975;SDS011;34791;52.752;8.346;2023-11-21T08:05:40;25.13;;;8.97;;
48975;SDS011;34791;52.752;8.346;2023-11-21T08:08:05;25.23;;;9.50;;
48975;SDS011;34791;52.752;8.346;2023-11-21T08:10:30;22.53;;;9.00;;
48975;SDS011;34791;52.752;8.346;2023-11-21T08:12:55;23.60;;;8.93;;
48975;SDS011;34791;52.752;8.346;2023-11-21T08:15:21;28.23;;;10.20;;
48975;SDS011;34791;52.752;8.346;2023-11-21T08:17:46;25.33;;;9.93;;
48975;SDS011;34791;52.752;8.346;2023-11-21T08:20:11;22.80;;;9.90;;
48975;SDS011;34791;52.752;8.346;2023-11-21T08:22:37;24.20;;;10.10;;
48975;SDS011;34791;52.752;8.346;2023-11-21T08:25:02;26.27;;;10.70;;
48975;SDS011;34791;52.752;8.346;2023-11-21T08:27:29;19.33;;;8.97;;
48975;SDS011;34791;52.752;8.346;2023-11-21T08:29:55;19.97;;;9.90;;
48975;SDS011;34791;52.752;8.346;2023-11-21T08:32:21;23.27;;;10.87;;
48975;SDS011;34791;52.752;8.346;2023-11-21T08:34:46;22.97;;;10.50;;
48975;SDS011;34791;52.752;8.346;2023-11-21T08:37:15;23.23;;;10.30;;
48975;SDS011;34791;52.752;8.346;2023-11-21T08:39:41;21.90;;;10.00;;
48975;SDS011;34791;52.752;8.346;2023-11-21T08:42:07;21.40;;;9.07;;
48975;SDS011;34791;52.752;8.346;2023-11-21T08:44:33;21.13;;;9.40;;
48975;SDS011;34791;52.752;8.346;2023-11-21T08:46:58;21.80;;;9.30;;
48975;SDS011;34791;52.752;8.346;2023-11-21T08:49:23;21.53;;;9.60;;
48975;SDS011;34791;52.752;8.346;2023-11-21T08:51:51;16.93;;;8.67;;
48975;SDS011;34791;52.752;8.346;2023-11-21T08:54:16;18.50;;;9.07;;
48975;SDS011;34791;52.752;8.346;2023-11-21T08:56:43;14.97;;;7.77;;
48975;SDS011;34791;52.752;8.346;2023-11-21T08:59:08;15.53;;;8.13;;
48975;SDS011;34791;52.752;8.346;2023-11-21T09:01:33;15.60;;;8.13;;
48975;SDS011;34791;52.752;8.346;2023-11-21T09:03:58;16.83;;;8.87;;
48975;SDS011;34791;52.752;8.346;2023-11-21T09:06:24;15.83;;;8.33;;
48975;SDS011;34791;52.752;8.346;2023-11-21T09:08:49;14.13;;;7.57;;
48975;SDS011;34791;52.752;8.346;2023-11-21T09:11:14;17.87;;;8.73;;
48975;SDS011;34791;52.752;8.346;2023-11-21T09:13:40;14.53;;;7.20;;
48975;SDS011;34791;52.752;8.346;2023-11-21T09:16:05;15.00;;;8.13;;
48975;SDS011;34791;52.752;8.346;2023-11-21T09:18:30;13.73;;;7.40;;
48975;SDS011;34791;52.752;8.346;2023-11-21T09:20:56;13.67;;;6.93;;
48975;SDS011;34791;52.752;8.346;2023-11-21T09:23:21;16.50;;;8.40;;
48975;SDS011;34791;52.752;8.346;2023-11-21T09:25:46;13.50;;;6.47;;
48975;SDS011;34791;52.752;8.346;2023-11-21T09:28:14;13.67;;;6.67;;
48975;SDS011;34791;52.752;8.346;2023-11-21T09:30:39;13.47;;;6.93;;
48975;SDS011;34791;52.752;8.346;2023-11-21T09:33:05;16.63;;;7.80;;
48975;SDS011;34791;52.752;8.346;2023-11-21T09:35:35;13.47;;;7.03;;
48975;SDS011;34791;52.752;8.346;2023-11-21T09:38:00;12.80;;;6.50;;
48975;SDS011;34791;52.752;8.346;2023-11-21T09:40:27;11.47;;;5.93;;
48975;SDS011;34791;52.752;8.346;2023-11-21T09:42:56;14.40;;;7.50;;
48975;SDS011;34791;52.752;8.346;2023-11-21T09:47:50;13.27;;;7.00;;
48975;SDS011;34791;52.752;8.346;2023-11-21T09:50:17;12.53;;;6.57;;
48975;SDS011;34791;52.752;8.346;2023-11-21T09:52:55;11.67;;;6.27;;
48975;SDS011;34791;52.752;8.346;2023-11-21T09:55:22;15.20;;;6.63;;
48975;SDS011;34791;52.752;8.346;2023-11-21T09:57:50;13.33;;;6.93;;
48975;SDS011;34791;52.752;8.346;2023-11-21T10:00:17;13.23;;;6.70;;
48975;SDS011;34791;52.752;8.346;2023-11-21T10:02:43;11.13;;;5.93;;
48975;SDS011;34791;52.752;8.346;2023-11-21T10:05:08;14.77;;;6.53;;
48975;SDS011;34791;52.752;8.346;2023-11-21T10:07:36;12.17;;;6.57;;
48975;SDS011;34791;52.752;8.346;2023-11-21T10:10:04;9.63;;;5.13;;
48975;SDS011;34791;52.752;8.346;2023-11-21T10:12:29;10.33;;;5.97;;
48975;SDS011;34791;52.752;8.346;2023-11-21T10:14:56;11.07;;;5.73;;
48975;SDS011;34791;52.752;8.346;2023-11-21T10:17:24;11.40;;;5.73;;
48975;SDS011;34791;52.752;8.346;2023-11-21T10:19:51;14.30;;;6.10;;
48975;SDS011;34791;52.752;8.346;2023-11-21T10:22:24;16.77;;;5.60;;
48975;SDS011;34791;52.752;8.346;2023-11-21T10:24:53;12.93;;;6.73;;
48975;SDS011;34791;52.752;8.346;2023-11-21T10:27:18;11.47;;;6.23;;
48975;SDS011;34791;52.752;8.346;2023-11-21T10:29:44;14.50;;;6.43;;
48975;SDS011;34791;52.752;8.346;2023-11-21T10:32:09;11.60;;;6.40;;
48975;SDS011;34791;52.752;8.346;2023-11-21T10:34:36;10.93;;;5.17;;
48975;SDS011;34791;52.752;8.346;2023-11-21T10:37:11;11.47;;;5.17;;
48975;SDS011;34791;52.752;8.346;2023-11-21T10:39:37;10.97;;;5.80;;
48975;SDS011;34791;52.752;8.346;2023-11-21T10:42:03;10.50;;;5.73;;
48975;SDS011;34791;52.752;8.346;2023-11-21T10:44:29;10.60;;;5.80;;
48975;SDS011;34791;52.752;8.346;2023-11-21T10:46:54;11.20;;;6.20;;
48975;SDS011;34791;52.752;8.346;2023-11-21T10:49:25;12.70;;;6.40;;
48975;SDS011;34791;52.752;8.346;2023-11-21T10:51:52;10.30;;;6.03;;
48975;SDS011;34791;52.752;8.346;2023-11-21T10:54:22;11.90;;;6.57;;
48975;SDS011;34791;52.752;8.346;2023-11-21T10:56:48;12.47;;;6.33;;
48975;SDS011;34791;52.752;8.346;2023-11-21T10:59:15;11.00;;;5.30;;
48975;SDS011;34791;52.752;8.346;2023-11-21T11:01:44;12.83;;;6.00;;
48975;SDS011;34791;52.752;8.346;2023-11-21T11:04:09;11.60;;;6.40;;
48975;SDS011;34791;52.752;8.346;2023-11-21T11:06:40;13.43;;;5.93;;
48975;SDS011;34791;52.752;8.346;2023-11-21T11:09:05;13.57;;;6.00;;
48975;SDS011;34791;52.752;8.346;2023-11-21T11:11:33;21.30;;;11.73;;
48975;SDS011;34791;52.752;8.346;2023-11-21T11:13:58;11.53;;;6.20;;
48975;SDS011;34791;52.752;8.346;2023-11-21T11:16:25;10.27;;;5.67;;
48975;SDS011;34791;52.752;8.346;2023-11-21T11:18:52;13.23;;;5.80;;
48975;SDS011;34791;52.752;8.346;2023-11-21T11:21:25;13.00;;;5.47;;
48975;SDS011;34791;52.752;8.346;2023-11-21T11:24:04;10.93;;;5.33;;
48975;SDS011;34791;52.752;8.346;2023-11-21T11:33:53;9.50;;;5.50;;
48975;SDS011;34791;52.752;8.346;2023-11-21T11:39:26;11.50;;;5.73;;
48975;SDS011;34791;52.752;8.346;2023-11-21T11:41:50;10.93;;;6.00;;
48975;SDS011;34791;52.752;8.346;2023-11-21T11:47:00;11.43;;;6.07;;
48975;SDS011;34791;52.752;8.346;2023-11-21T11:49:27;13.10;;;6.23;;
48975;SDS011;34791;52.752;8.346;2023-11-21T11:54:37;14.90;;;6.47;;
48975;SDS011;34791;52.752;8.346;2023-11-21T11:57:03;11.77;;;6.33;;
48975;SDS011;34791;52.752;8.346;2023-11-21T11:59:28;12.20;;;6.20;;
48975;SDS011;34791;52.752;8.346;2023-11-21T12:01:53;10.53;;;5.63;;
48975;SDS011;34791;52.752;8.346;2023-11-21T12:06:50;12.43;;;5.83;;
48975;SDS011;34791;52.752;8.346;2023-11-21T12:09:19;10.90;;;5.77;;
48975;SDS011;34791;52.752;8.346;2023-11-21T12:11:46;10.47;;;5.50;;
48975;SDS011;34791;52.752;8.346;2023-11-21T12:14:12;10.47;;;5.90;;
48975;SDS011;34791;52.752;8.346;2023-11-21T12:16:38;14.53;;;5.83;;
48975;SDS011;34791;52.752;8.346;2023-11-21T12:19:03;16.07;;;7.13;;
48975;SDS011;34791;52.752;8.346;2023-11-21T12:21:29;11.47;;;5.90;;
48975;SDS011;34791;52.752;8.346;2023-11-21T12:23:55;18.30;;;6.17;;
48975;SDS011;34791;52.752;8.346;2023-11-21T12:26:23;13.40;;;6.50;;
48975;SDS011;34791;52.752;8.346;2023-11-21T12:28:52;13.90;;;6.60;;
48975;SDS011;34791;52.752;8.346;2023-11-21T12:31:20;11.57;;;5.88;;
48975;SDS011;34791;52.752;8.346;2023-11-21T12:33:45;12.27;;;6.17;;
48975;SDS011;34791;52.752;8.346;2023-11-21T12:36:11;9.80;;;5.77;;
48975;SDS011;34791;52.752;8.346;2023-11-21T12:38:36;10.40;;;6.07;;
48975;SDS011;34791;52.752;8.346;2023-11-21T12:41:02;15.13;;;6.03;;
48975;SDS011;34791;52.752;8.346;2023-11-21T12:43:27;9.30;;;5.70;;
48975;SDS011;34791;52.752;8.346;2023-11-21T12:46:04;11.97;;;6.40;;
48975;SDS011;34791;52.752;8.346;2023-11-21T12:48:29;10.20;;;6.10;;
48975;SDS011;34791;52.752;8.346;2023-11-21T12:50:56;12.30;;;6.30;;
48975;SDS011;34791;52.752;8.346;2023-11-21T12:53:25;12.13;;;6.57;;
48975;SDS011;34791;52.752;8.346;2023-11-21T12:55:50;9.83;;;5.80;;
48975;SDS011;34791;52.752;8.346;2023-11-21T12:58:16;11.80;;;6.10;;
48975;SDS011;34791;52.752;8.346;2023-11-21T13:00:46;10.07;;;5.77;;
48975;SDS011;34791;52.752;8.346;2023-11-21T13:03:12;12.20;;;6.00;;
48975;SDS011;34791;52.752;8.346;2023-11-21T13:05:41;11.83;;;6.20;;
48975;SDS011;34791;52.752;8.346;2023-11-21T13:08:10;10.87;;;5.93;;
48975;SDS011;34791;52.752;8.346;2023-11-21T13:10:38;10.57;;;5.70;;
48975;SDS011;34791;52.752;8.346;2023-11-21T13:13:04;12.50;;;5.87;;
48975;SDS011;34791;52.752;8.346;2023-11-21T13:15:31;11.10;;;6.33;;
48975;SDS011;34791;52.752;8.346;2023-11-21T13:17:57;10.47;;;6.10;;
48975;SDS011;34791;52.752;8.346;2023-11-21T13:20:23;11.20;;;5.87;;
48975;SDS011;34791;52.752;8.346;2023-11-21T13:22:50;11.67;;;6.07;;
48975;SDS011;34791;52.752;8.346;2023-11-21T13:25:18;14.10;;;6.20;;
48975;SDS011;34791;52.752;8.346;2023-11-21T13:27:45;15.83;;;6.80;;
48975;SDS011;34791;52.752;8.346;2023-11-21T13:30:11;11.23;;;6.70;;
48975;SDS011;34791;52.752;8.346;2023-11-21T13:32:36;12.87;;;6.37;;
48975;SDS011;34791;52.752;8.346;2023-11-21T13:35:01;13.67;;;6.50;;
48975;SDS011;34791;52.752;8.346;2023-11-21T13:37:27;12.47;;;6.90;;
48975;SDS011;34791;52.752;8.346;2023-11-21T13:39:53;9.87;;;6.23;;
48975;SDS011;34791;52.752;8.346;2023-11-21T13:42:19;11.03;;;6.00;;
48975;SDS011;34791;52.752;8.346;2023-11-21T13:44:47;15.20;;;6.10;;
48975;SDS011;34791;52.752;8.346;2023-11-21T13:47:14;11.73;;;6.43;;
48975;SDS011;34791;52.752;8.346;2023-11-21T13:49:39;11.47;;;6.20;;
48975;SDS011;34791;52.752;8.346;2023-11-21T13:52:06;12.60;;;6.50;;
48975;SDS011;34791;52.752;8.346;2023-11-21T13:54:32;10.93;;;6.50;;
48975;SDS011;34791;52.752;8.346;2023-11-21T13:56:57;9.73;;;5.90;;
48975;SDS011;34791;52.752;8.346;2023-11-21T13:59:24;11.90;;;6.70;;
48975;SDS011;34791;52.752;8.346;2023-11-21T14:01:55;11.33;;;6.93;;
48975;SDS011;34791;52.752;8.346;2023-11-21T14:04:21;10.60;;;6.50;;
48975;SDS011;34791;52.752;8.346;2023-11-21T14:07:03;11.00;;;6.30;;
48975;SDS011;34791;52.752;8.346;2023-11-21T14:09:45;10.35;;;6.20;;
48975;SDS011;34791;52.752;8.346;2023-11-21T14:12:10;12.47;;;6.10;;
48975;SDS011;34791;52.752;8.346;2023-11-21T14:14:38;11.53;;;6.50;;
48975;SDS011;34791;52.752;8.346;2023-11-21T14:17:04;11.10;;;6.47;;
48975;SDS011;34791;52.752;8.346;2023-11-21T14:19:32;11.03;;;6.57;;
48975;SDS011;34791;52.752;8.346;2023-11-21T14:21:58;11.90;;;7.00;;
48975;SDS011;34791;52.752;8.346;2023-11-21T14:24:23;11.80;;;6.50;;
48975;SDS011;34791;52.752;8.346;2023-11-21T14:26:49;10.23;;;6.30;;
48975;SDS011;34791;52.752;8.346;2023-11-21T14:29:15;12.87;;;7.17;;
48975;SDS011;34791;52.752;8.346;2023-11-21T14:31:44;11.77;;;7.03;;
48975;SDS011;34791;52.752;8.346;2023-11-21T14:34:10;14.00;;;6.57;;
48975;SDS011;34791;52.752;8.346;2023-11-21T14:36:37;12.30;;;6.40;;
48975;SDS011;34791;52.752;8.346;2023-11-21T14:39:04;12.03;;;6.23;;
48975;SDS011;34791;52.752;8.346;2023-11-21T14:41:34;14.00;;;6.83;;